• Join FlightAware (Why Join?)
  • Login
  • US Flag 
03:56AM EDT


 

Airport Tracker/Info


-or-


 

Live Flight TrackerFlight Track Log ✈ AWE1714 ✈ 02-Nov-2013 ✈ TNCM / SXM - KCLT

Flight Track Log - Related Links

Times and Time Zones

All times are in EDT time to prevent confusion due to time zone crossing. See the AWE1714 flight status page for this flight to view local times or setup timezone preferences in your user account.

Time Position Orientation Groundspeed Altitude Reporting Facility
EDT Latitude Longitude Course Direction KTS MPH feet Rate Location/Type
12:48PM 17.9667 -63.1167 282° West 220 253 4,200  Level San Juan Center
12:49PM 18.3755 -63.3961 281° West  Level Estimated
12:49PM 18.0167 -63.1833 308° West 250 288 6,300  Level San Juan Center
12:50PM 18.3404 -63.5036 251° West  Level FlightAware Approximate
12:50PM 18.0500 -63.2500 298° West 290 334 8,800  Level San Juan Center
12:51PM 18.4242 -63.5752 279° West  Level Estimated
12:51PM 18.0667 -63.3333 282° West 300 345 10,900  Level San Juan Center
12:52PM 18.5080 -63.6469 270° West  Level Estimated
12:52PM 18.0833 -63.4333 280° West 360 414 12,500  Level San Juan Center
12:53PM 18.5918 -63.7187 282° West  Level Estimated
12:53PM 18.1000 -63.5333 280° West 370 426 14,900  Level San Juan Center
12:54PM 18.1333 -63.6500 287° West 370 426 16,700 1,860 Climbing San Juan Center
12:55PM 18.1667 -63.7500 289° West 390 449 18,700 1,800 Climbing San Juan Center
12:56PM 18.2167 -63.8667 294° West 400 460 20,300 1,680 Climbing San Juan Center
12:57PM 18.2500 -63.9667 289° West 400 460 22,100 1,500 Climbing San Juan Center
12:58PM 18.2667 -64.1000 278° West 400 460 23,400 1,200 Climbing San Juan Center
12:59PM 18.3000 -64.2000 289° West 400 460 24,600 1,080 Climbing San Juan Center
01:00PM 18.3333 -64.3167 287° West 410 472 25,600 1,200 Climbing San Juan Center
01:01PM 18.3167 -64.4333 261° West 410 472 27,100 1,380 Climbing San Juan Center
01:02PM 18.3000 -64.5500 261° West 400 460 28,500 900 Climbing San Juan Center
01:03PM 18.2667 -64.6667 253° West 410 472 29,000 540 Climbing San Juan Center
01:04PM 18.2167 -64.7833 246° West 430 495 29,600 540 Climbing San Juan Center
01:05PM 18.2333 -64.9000 279° West 440 506 30,100 540 Climbing San Juan Center
01:06PM 18.3000 -65.0000 305° West 460 529 30,800 840 Climbing San Juan Center
01:07PM 18.3833 -65.1000 311° West 460 529 31,800 1,020 Climbing San Juan Center
01:08PM 18.4833 -65.2167 312° West 460 529 32,900 1,140 Climbing San Juan Center
01:09PM 18.5667 -65.3167 311° West 440 506 34,100 600 Climbing San Juan Center
01:10PM 18.6333 -65.4167 305° West 440 506 34,100  Level San Juan Center
01:11PM 18.7167 -65.5167 311° West 440 506 34,100  Level San Juan Center
01:12PM 18.8000 -65.6167 311° West 440 506 34,100  Level San Juan Center
01:13PM 18.8833 -65.7167 311° West 440 506 34,100  Level San Juan Center
01:14PM 18.9667 -65.8167 311° West 440 506 34,100  Level San Juan Center
01:15PM 19.0500 -65.9000 317° Northwest 440 506 34,100  Level San Juan Center
01:16PM 19.1167 -66.0000 305° West 430 495 34,100  Level San Juan Center
01:17PM 19.1833 -66.0833 310° West 430 495 34,100  Level San Juan Center
01:18PM 19.2667 -66.1833 311° West 430 495 34,100 -60 Level San Juan Center
01:19PM 19.3500 -66.2833 311° West 450 518 34,000 240 Descending San Juan Center
01:20PM 19.4333 -66.3833 311° West 440 506 34,600 960 Climbing San Juan Center
01:21PM 19.5000 -66.4833 305° West 440 506 36,000 660 Climbing San Juan Center
01:22PM 19.5833 -66.5833 312° West 430 495 36,000  Level San Juan Center
01:23PM 19.6667 -66.6667 317° Northwest 430 495 36,000  Level San Juan Center
01:24PM 19.7333 -66.7667 305° West 440 506 36,000  Level San Juan Center
01:25PM 19.8167 -66.8667 312° West 430 495 36,000  Level San Juan Center
01:26PM 19.9000 -66.9667 312° West 430 495 36,000  Level San Juan Center
01:27PM 19.9833 -67.0667 312° West 440 506 36,000  Level San Juan Center
01:28PM 20.0500 -67.1667 305° West 430 495 36,000  Level San Juan Center
01:29PM 20.1333 -67.2667 312° West 440 506 36,000  Level San Juan Center
01:30PM 20.2167 -67.3500 317° Northwest 430 495 36,000  Level San Juan Center
01:31PM 20.2833 -67.4500 305° West 430 495 36,000  Level San Juan Center
01:32PM 20.3667 -67.5500 312° West 430 495 36,000  Level San Juan Center
01:33PM 20.4333 -67.6500 305° West 430 495 36,000  Level San Juan Center
01:34PM 20.5167 -67.7500 312° West 430 495 36,000  Level San Juan Center
01:35PM 20.6275 -67.8828 312° West 430 495 36,000  Level Miami Center
01:36PM 20.7058 -67.9794 311° West 430 495 36,000  Level Miami Center
01:37PM 20.7942 -68.0689 317° Northwest 430 495 36,000  Level Miami Center
01:38PM 20.8844 -68.1539 319° Northwest 430 495 36,000  Level Miami Center
01:39PM 20.9764 -68.2364 320° Northwest 430 495 36,000  Level Miami Center
01:40PM 21.0664 -68.3194 319° Northwest 430 495 36,000  Level Miami Center
01:41PM 21.1583 -68.4003 321° Northwest 430 495 36,000  Level Miami Center
01:43PM 21.3486 -68.5683 321° Northwest 436 502 36,000  Level Miami Center
01:44PM 21.4342 -68.6497 318° Northwest 436 502 36,000  Level Miami Center
01:45PM 21.5325 -68.7350 321° Northwest 436 502 36,000  Level Miami Center
01:46PM 21.6203 -68.8189 318° Northwest 436 502 36,000  Level Miami Center
01:47PM 21.7100 -68.9025 319° Northwest 436 502 36,000  Level Miami Center
01:48PM 21.8039 -68.9842 321° Northwest 431 496 36,000  Level Miami Center
01:49PM 21.8958 -69.0700 319° Northwest 437 503 36,000  Level Miami Center
01:50PM 21.9939 -69.1536 322° Northwest 437 503 36,000  Level Miami Center
01:51PM 22.0794 -69.2381 318° Northwest 431 496 36,000  Level Miami Center
01:52PM 22.1753 -69.3244 320° Northwest 431 496 36,000  Level Miami Center
01:53PM 22.2650 -69.4089 319° Northwest 431 496 36,000  Level Miami Center
01:54PM 22.3589 -69.4953 320° Northwest 436 502 36,000  Level Miami Center
01:55PM 22.4525 -69.5797 320° Northwest 436 502 36,000  Level Miami Center
01:56PM 22.5444 -69.6667 319° Northwest 436 502 36,000  Level Miami Center
01:57PM 22.6336 -69.7494 319° Northwest 431 496 36,000  Level Miami Center
01:58PM 22.7275 -69.8386 319° Northwest 431 496 36,000  Level Miami Center
01:59PM 22.8169 -69.9194 320° Northwest 431 496 36,000  Level Miami Center
02:00PM 22.9064 -70.0044 319° Northwest 431 496 36,000  Level Miami Center
02:01PM 23.0022 -70.0942 319° Northwest 431 496 36,000  Level Miami Center
02:02PM 23.0936 -70.1817 319° Northwest 432 497 36,000  Level Miami Center
02:03PM 23.1894 -70.2717 319° Northwest 437 503 36,000  Level Miami Center
02:04PM 23.2808 -70.3572 319° Northwest 437 503 36,000 -180 Level Miami Center
02:05PM 23.3722 -70.4453 319° Northwest 437 503 35,700 -540 Descending Miami Center
02:06PM 23.4675 -70.5308 321° Northwest 437 503 35,000 -660 Descending Miami Center
02:07PM 23.5589 -70.6192 318° Northwest 437 503 34,400 -660 Descending Miami Center
02:08PM 23.6525 -70.7119 318° Northwest 431 496 33,700 -720 Descending Miami Center
02:09PM 23.7481 -70.8025 319° Northwest 442 509 33,000 -360 Descending Miami Center
02:10PM 23.8414 -70.8911 319° Northwest 442 509 33,000  Level Miami Center
02:11PM 23.9369 -70.9819 319° Northwest 447 514 33,000  Level Miami Center
02:12PM 24.0322 -71.0750 318° Northwest 454 522 33,000  Level Miami Center
02:13PM 24.1256 -71.1664 318° Northwest 454 522 33,000  Level Miami Center
02:14PM 24.2208 -71.2553 320° Northwest 459 528 33,000  Level Miami Center
02:15PM 24.3164 -71.3558 316° Northwest 459 528 33,000  Level Miami Center
02:16PM 24.4136 -71.4450 320° Northwest 459 528 33,000  Level Miami Center
02:17PM 24.5089 -71.5367 319° Northwest 459 528 33,000  Level Miami Center
02:18PM 24.6019 -71.6308 317° Northwest 454 522 33,000  Level Miami Center
02:19PM 24.6992 -71.7181 321° Northwest 454 522 33,000  Level Miami Center
02:20PM 24.7944 -71.8169 317° Northwest 459 528 33,000  Level Miami Center
02:21PM 24.9000 -71.9133 320° Northwest 454 522 33,000  Level Miami Center
02:22PM 24.9900 -71.9831 325° Northwest 448 516 33,000  Level Miami Center
02:22PM 25.0000 -72.0000 330° Northwest 466 536 33,000  Level New York Oceanic (ODAPS)
02:30PM 25.8996 -72.5721 330° Northwest 466 536 33,000  Level FlightAware Transoceanic
02:31PM 26.0119 -72.6442 330° Northwest 466 536 33,000  Level FlightAware Transoceanic
02:32PM 26.1242 -72.7164 330° Northwest 466 536 33,000  Level FlightAware Transoceanic
02:33PM 26.2364 -72.7888 330° Northwest 466 536 33,000  Level FlightAware Transoceanic
02:34PM 26.3486 -72.8613 330° Northwest 466 536 33,000  Level FlightAware Transoceanic
02:35PM 26.4608 -72.9340 330° Northwest 466 536 33,000  Level FlightAware Transoceanic
02:36PM 26.5729 -73.0068 330° Northwest 466 536 33,000  Level FlightAware Transoceanic
02:37PM 26.6849 -73.0798 330° Northwest 466 536 33,000  Level FlightAware Transoceanic
02:38PM 26.7970 -73.1529 330° Northwest 466 536 33,000  Level FlightAware Transoceanic
02:39PM 26.9090 -73.2261 330° Northwest 466 536 33,000  Level FlightAware Transoceanic
02:40PM 27.0210 -73.2995 330° Northwest 466 536 33,000  Level FlightAware Transoceanic
02:41PM 27.1329 -73.3730 330° Northwest 466 536 33,000  Level FlightAware Transoceanic
02:42PM 27.2448 -73.4467 330° Northwest 466 536 33,000  Level FlightAware Transoceanic
02:43PM 27.3566 -73.5206 330° Northwest 466 536 33,000  Level FlightAware Transoceanic
02:44PM 27.4684 -73.5945 330° Northwest 466 536 33,000  Level FlightAware Transoceanic
02:45PM 27.5802 -73.6687 330° Northwest 466 536 33,000  Level FlightAware Transoceanic
02:46PM 27.6919 -73.7430 329° Northwest 466 536 33,000  Level FlightAware Transoceanic
02:47PM 27.8036 -73.8174 329° Northwest 466 536 33,000  Level FlightAware Transoceanic
02:48PM 27.9153 -73.8920 329° Northwest 466 536 33,000  Level FlightAware Transoceanic
02:49PM 28.0269 -73.9667 329° Northwest 466 536 33,000  Level FlightAware Transoceanic
02:50PM 28.1385 -74.0416 329° Northwest 466 536 33,000  Level FlightAware Transoceanic
02:51PM 28.2500 -74.1167 322° Northwest 466 536 33,000  Level FlightAware Transoceanic
02:51PM 28.2500 -74.1167 322° Northwest 478 550 33,000  Level New York Oceanic (ODAPS)
02:52PM 28.3543 -74.2100 322° Northwest 466 536 33,000  Level FlightAware Transoceanic
02:53PM 28.4586 -74.3035 322° Northwest 466 536 33,000  Level FlightAware Transoceanic
02:54PM 28.5627 -74.3971 322° Northwest 466 536 33,000  Level FlightAware Transoceanic
02:55PM 28.6669 -74.4910 322° Northwest 466 536 33,000  Level FlightAware Transoceanic
02:56PM 28.7709 -74.5850 322° Northwest 466 536 33,000  Level FlightAware Transoceanic
02:57PM 28.8749 -74.6793 322° Northwest 478 550 33,000  Level FlightAware Transoceanic
02:58PM 28.9788 -74.7737 321° Northwest 478 550 33,000  Level FlightAware Transoceanic
02:59PM 29.0827 -74.8683 321° Northwest 478 550 33,000  Level FlightAware Transoceanic
03:00PM 29.1865 -74.9631 321° Northwest 478 550 33,000  Level FlightAware Transoceanic
03:01PM 29.2902 -75.0581 321° Northwest 478 550 33,000  Level FlightAware Transoceanic
03:02PM 29.3939 -75.1533 321° Northwest 478 550 33,000  Level FlightAware Transoceanic
03:03PM 29.4975 -75.2487 321° Northwest 478 550 33,000  Level FlightAware Transoceanic
03:04PM 29.6010 -75.3442 321° Northwest 478 550 33,000  Level FlightAware Transoceanic
03:05PM 29.7044 -75.4400 321° Northwest 478 550 33,000  Level FlightAware Transoceanic
03:06PM 29.8078 -75.5360 321° Northwest 478 550 33,000  Level FlightAware Transoceanic
03:07PM 29.9111 -75.6322 321° Northwest 478 550 33,000  Level FlightAware Transoceanic
03:08PM 30.0144 -75.7285 321° Northwest 478 550 33,000  Level FlightAware Transoceanic
03:09PM 30.1176 -75.8251 321° Northwest 478 550 33,000  Level FlightAware Transoceanic
03:10PM 30.2207 -75.9219 321° Northwest 478 550 33,000  Level FlightAware Transoceanic
03:11PM 30.3237 -76.0188 321° Northwest 478 550 33,000  Level FlightAware Transoceanic
03:12PM 30.4266 -76.1160 321° Northwest 478 550 33,000  Level FlightAware Transoceanic
03:13PM 30.5295 -76.2134 321° Northwest 478 550 33,000  Level FlightAware Transoceanic
03:14PM 30.6324 -76.3110 321° Northwest 478 550 33,000  Level FlightAware Transoceanic
03:15PM 30.7351 -76.4088 321° Northwest 478 550 33,000  Level FlightAware Transoceanic
03:16PM 30.8378 -76.5068 321° Northwest 478 550 33,000  Level FlightAware Transoceanic
03:17PM 30.9404 -76.6050 321° Northwest 478 550 33,000  Level FlightAware Transoceanic
03:17PM 31.0111 -76.6108 321° Northwest 452 520 33,000  Level Jacksonville Center
03:18PM 31.0429 -76.7034 321° Northwest 478 550 33,000 -120 Level FlightAware Transoceanic
03:18PM 31.1097 -76.7061 320° Northwest 452 520 32,900  Descending Jacksonville Center
03:19PM 31.1453 -76.8021 320° Northwest 478 550 33,000 60 Climbing FlightAware Transoceanic
03:19PM 31.2083 -76.8064 319° Northwest 465 535 33,000  Level Jacksonville Center
03:20PM 31.2477 -76.9009 320° Northwest 478 550 33,000  Level FlightAware Transoceanic
03:20PM 31.3033 -76.9119 317° Northwest 465 535 33,000  Level Jacksonville Center
03:21PM 31.3500 -77.0000 321° Northwest 478 550 33,000 -120 Level FlightAware Transoceanic
03:21PM 31.3814 -77.0214 310° West 458 527 32,900  Descending Jacksonville Center
03:22PM 31.4503 -77.0936 321° Northwest 478 550 33,000 60 Climbing FlightAware Transoceanic
03:22PM 31.4800 -77.1222 319° Northwest 458 527 33,000 1,080 Level Jacksonville Center
03:23PM 31.5822 -77.2133 323° Northwest 458 527 34,700 1,380 Climbing Jacksonville Center
03:24PM 31.6819 -77.3025 323° Northwest 458 527 35,800 600 Climbing Jacksonville Center
03:25PM 31.7822 -77.3992 321° Northwest 464 534 36,000 60 Climbing Jacksonville Center
03:26PM 31.8800 -77.4886 322° Northwest 464 534 36,000  Level Jacksonville Center
03:27PM 31.9781 -77.5858 320° Northwest 459 528 36,000 -60 Level Jacksonville Center
03:28PM 32.0700 -77.6858 317° Northwest 453 521 35,900 -60 Descending Jacksonville Center
03:29PM 32.1594 -77.7836 317° Northwest 448 516 35,900  Level Jacksonville Center
03:30PM 32.2575 -77.8839 319° Northwest 434 499 36,000  Climbing Jacksonville Center
03:31PM 32.3511 -77.9844 318° Northwest 434 499 36,000  Level Jacksonville Center
03:32PM 32.4428 -78.0853 317° Northwest 439 505 36,000  Level Jacksonville Center
03:33PM 32.5342 -78.1864 317° Northwest 439 505 36,000  Level Jacksonville Center
03:34PM 32.6256 -78.2878 317° Northwest 445 512 36,000 -300 Level Jacksonville Center
03:35PM 32.7167 -78.3842 318° Northwest 445 512 35,400 -660 Descending Jacksonville Center
03:36PM 32.8081 -78.4883 316° Northwest 445 512 34,700 -720 Descending Jacksonville Center
03:37PM 32.9011 -78.5903 317° Northwest 450 518 34,000 -720 Descending Jacksonville Center
03:38PM 32.9944 -78.6922 318° Northwest 450 518 33,300 -720 Descending Jacksonville Center
03:39PM 33.0897 -78.7969 317° Northwest 450 518 32,600 -720 Descending Jacksonville Center
03:40PM 33.1869 -78.8992 319° Northwest 455 524 31,900 -720 Descending Jacksonville Center
03:41PM 33.2819 -79.0042 317° Northwest 460 529 31,200 -480 Descending Jacksonville Center
03:42PM 33.3792 -79.1119 317° Northwest 460 529 31,000 -120 Descending Jacksonville Center
03:43PM 33.4719 -79.2150 317° Northwest 460 529 31,000  Level Jacksonville Center
03:44PM 33.5667 -79.3206 317° Northwest 460 529 31,000 -240 Level Jacksonville Center
03:45PM 33.6594 -79.4242 317° Northwest 460 529 30,600 -1,200 Descending Jacksonville Center
03:46PM 33.7561 -79.5303 318° Northwest 460 529 28,700 -2,640 Descending Jacksonville Center
03:47PM 33.8486 -79.6392 316° Northwest 460 529 25,400 -2,400 Descending Jacksonville Center
03:48PM 33.9453 -79.7433 318° Northwest 460 529 23,900 -1,200 Descending Jacksonville Center
03:49PM 34.0397 -79.8528 316° Northwest 460 529 23,000 -1,500 Descending Jacksonville Center
03:50PM 34.1356 -79.9322 326° Northwest 465 535 21,000 -2,220 Descending Jacksonville Center
03:51PM 34.2458 -80.0064 331° Northwest 465 535 18,600 -2,460 Descending Jacksonville Center
03:52PM 34.3536 -80.0756 332° Northwest 452 520 16,100 -2,400 Descending Jacksonville Center
03:53PM 34.4553 -80.1478 330° Northwest 440 506 13,800 -1,800 Descending Jacksonville Center
03:54PM 34.5483 -80.2053 333° Northwest 410 472 12,600 -960 Descending Jacksonville Center
03:56PM 34.6639 -80.2961 327° Northwest 276 318 11,500 -660 Descending Atlanta Center
03:57PM 34.7244 -80.3717 314° West 266 306 11,000 -420 Descending Atlanta Center
03:57PM 34.7617 -80.4283 309° West 269 310 10,700 -720 Descending Atlanta Center
03:58PM 34.8033 -80.4997 305° West 264 304 9,800 -1,560 Descending Atlanta Center
04:00PM 34.8497 -80.5814 305° West 256 295 7,400 -1,800 Descending Atlanta Center
04:01PM 34.8892 -80.6583 302° West 259 298 6,000 -720 Descending Atlanta Center
04:02PM 34.9289 -80.7300 304° West 257 296 6,000 -720 Level Atlanta Center
04:03PM 34.9661 -80.8022 302° West 255 293 4,600 -1,080 Descending Atlanta Center
04:04PM 35.0075 -80.8689 307° West 252 290 3,900 -780 Descending Atlanta Center
04:05PM 35.0692 -80.9122 330° Northwest 194 223 3,000 -720 Descending Atlanta Center
04:06PM 35.1156 -80.9308 342° North 178 205 2,400 -780 Descending Atlanta Center
04:07PM 35.1636 -80.9342 357° North 154 177 1,500 -780 Descending Atlanta Center
04:08PM 35.1928 -80.9356 358° North 122 140 1,000 -600 Descending Atlanta Center